Language: 


Des rapports , des résumés tant et plus, au choix de chacun....


Données statistiques de la station
Quotidien Rapport Janvier 10, 2017 Unités:  Anglais    Métrique   les deux
« Précédent Jour
Suivant Jour »
Quotidien Hebdomadaire Mensuel Annuel Actuel
  Haut: Bas: Moyen:
Température: 46.2 °F 35.4 °F 41.2 °F
Pt de rosée: 44.8 °F 34.9 °F 40.1 °F
Humidité: 98 % 93 % 96 %
Vitesse du vent: 9.8 mph 0 mph 2.8 mph
Rafales: 12.1 mph - -
Vent:- - West
Pression: 29.9 in 29.7 in -
Précipitation: 0.02 in    
Historical Graphs
 
 
Données statistiques pour Janvier 10, 2017
Heure Température Point de rosée Pression Vent Vitesse du vent Refales Humidité Pluie (taux horaire)
00:02 44.2 °F 42.6 °F 29.8 in NW 4.5 mph 10.3 mph 94 % 0.07 in
00:07 44.2 °F 42.8 °F 29.8 in NNW 7.2 mph 9.4 mph 95 % 0.07 in
00:12 43.9 °F 42.3 °F 29.8 in NNW 7.8 mph 9.4 mph 94 % 0.06 in
00:17 43.5 °F 42.1 °F 29.8 in NNW 3.8 mph 12.1 mph 94 % 0.06 in
00:22 43.5 °F 41.9 °F 29.8 in Calm   12.1 mph 94 % 0.06 in
00:27 43.3 °F 41.7 °F 29.8 in Calm   7.4 mph 94 % 0.06 in
00:32 43 °F 41.4 °F 29.8 in WNW 2.5 mph 5.8 mph 94 % 0.06 in
00:37 42.8 °F 41.2 °F 29.8 in WNW 1.3 mph 5.8 mph 94 % 0.06 in
00:42 42.6 °F 41.4 °F 29.8 in NW 3.8 mph 6.3 mph 95 % 0.06 in
00:47 42.6 °F 41.4 °F 29.8 in NNW 3.8 mph 7.6 mph 95 % 0.06 in
00:52 42.6 °F 41.4 °F 29.8 in NNW 3.4 mph 7.6 mph 95 % 0 in
00:57 42.6 °F 41.4 °F 29.8 in WNW 4 mph 7.6 mph 95 % 0 in
01:02 42.6 °F 41.4 °F 29.8 in WSW 5.4 mph 7.8 mph 95 % 0 in
01:07 42.6 °F 41.4 °F 29.8 in WSW 4 mph 7.8 mph 95 % 0 in
01:12 42.8 °F 41.4 °F 29.8 in WSW 4 mph 10.1 mph 95 % 0 in
01:17 42.6 °F 41.4 °F 29.8 in WNW 3.4 mph 10.1 mph 95 % 0 in
01:22 42.4 °F 41.2 °F 29.8 in WNW 3.4 mph 7.6 mph 95 % 0 in
01:27 42.1 °F 40.6 °F 29.8 in West 2.5 mph 7.4 mph 95 % 0 in
01:32 42.1 °F 40.6 °F 29.8 in West 2.7 mph 7.4 mph 95 % 0 in
01:37 41.9 °F 40.6 °F 29.8 in Calm   7.4 mph 95 % 0 in
01:42 41.5 °F 40.3 °F 29.8 in West 3.4 mph 5.8 mph 95 % 0 in
01:47 41.4 °F 39.9 °F 29.8 in West 3.6 mph 6.3 mph 95 % 0 in
01:52 41.2 °F 39.7 °F 29.8 in SSW 2.9 mph 6.3 mph 95 % 0 in
01:57 41 °F 39.7 °F 29.8 in West 3.8 mph 5.4 mph 95 % 0 in
02:02 40.8 °F 39.6 °F 29.8 in West 4.9 mph 5.4 mph 95 % 0 in
02:07 40.5 °F 39.4 °F 29.8 in West 6 mph 6.5 mph 96 % 0 in
02:12 40.3 °F 39.2 °F 29.8 in West 4 mph 6.5 mph 96 % 0 in
02:17 39.9 °F 38.8 °F 29.8 in West 4.9 mph 6 mph 96 % 0 in
02:22 39.7 °F 38.7 °F 29.8 in West 3.6 mph 5.4 mph 96 % 0 in
02:27 39.4 °F 38.5 °F 29.8 in WSW 4 mph 5.4 mph 96 % 0 in
02:32 39 °F 37.9 °F 29.8 in WSW 4.3 mph 5.6 mph 96 % 0 in
02:37 38.8 °F 37.8 °F 29.8 in WSW 4.9 mph 6.3 mph 96 % 0 in
02:42 38.8 °F 37.8 °F 29.8 in West 4.7 mph 6.3 mph 96 % 0 in
02:48 38.7 °F 37.8 °F 29.8 in WSW 4.9 mph 5.6 mph 96 % 0 in
02:53 38.5 °F 37.2 °F 29.8 in WSW 3.1 mph 5.6 mph 96 % 0 in
02:58 37.9 °F 37 °F 29.8 in WSW 3.6 mph 4 mph 96 % 0 in
03:03 37.9 °F 37 °F 29.8 in WSW 4.7 mph 4.9 mph 96 % 0 in
03:08 37.9 °F 37 °F 29.8 in West 4.7 mph 4.9 mph 96 % 0 in
03:13 37.8 °F 37 °F 29.8 in West 5.8 mph 5.8 mph 97 % 0 in
03:18 37.8 °F 37 °F 29.8 in West 3.8 mph 5.8 mph 97 % 0 in
03:23 37.8 °F 37 °F 29.8 in West 4.9 mph 5.8 mph 97 % 0 in
03:28 37.6 °F 36.9 °F 29.8 in WSW 4.3 mph 5.4 mph 97 % 0 in
03:33 37.2 °F 36.3 °F 29.8 in WSW 2.9 mph 4.3 mph 96 % 0 in
03:38 36.9 °F 36.1 °F 29.8 in WSW 3.6 mph 4.3 mph 97 % 0 in
03:43 36.7 °F 35.8 °F 29.8 in WSW 3.8 mph 4 mph 97 % 0 in
03:48 36.3 °F 35.6 °F 29.8 in WSW 3.6 mph 4.3 mph 97 % 0 in
03:53 36.7 °F 35.8 °F 29.8 in WSW 4 mph 4.3 mph 97 % 0 in
03:58 36.9 °F 36 °F 29.8 in WSW 3.8 mph 4.9 mph 97 % 0 in
04:03 36.9 °F 36 °F 29.8 in WSW 3.8 mph 4.9 mph 97 % 0 in
04:08 36.9 °F 36.1 °F 29.8 in WSW 3.8 mph 4.3 mph 97 % 0 in
04:13 36.9 °F 36.1 °F 29.8 in WSW 2.7 mph 4.3 mph 97 % 0 in
04:18 36.9 °F 36 °F 29.8 in WSW 2.5 mph 3.8 mph 97 % 0 in
04:23 36.9 °F 36 °F 29.8 in Calm   3.6 mph 97 % 0 in
04:28 36.7 °F 35.8 °F 29.8 in Calm   3.1 mph 97 % 0 in
04:33 36.7 °F 35.8 °F 29.8 in Calm   1.1 mph 97 % 0 in
04:38 36.1 °F 35.4 °F 29.8 in Calm     97 % 0 in
04:43 36.1 °F 35.2 °F 29.8 in Calm     97 % 0 in
04:48 36 °F 35.1 °F 29.8 in Calm     97 % 0 in
04:53 35.8 °F 34.9 °F 29.8 in Calm   3.1 mph 97 % 0 in
04:58 35.4 °F 34.9 °F 29.8 in SW 3.6 mph 3.6 mph 97 % 0 in
05:03 35.8 °F 34.9 °F 29.8 in Calm   3.8 mph 97 % 0 in
05:08 36.1 °F 35.2 °F 29.8 in West 2.5 mph 3.8 mph 97 % 0 in
05:13 36.1 °F 35.4 °F 29.8 in Calm   3.4 mph 97 % 0 in
05:18 36.1 °F 35.4 °F 29.8 in Calm   3.4 mph 97 % 0 in
05:23 36.3 °F 35.6 °F 29.8 in Calm     97 % 0 in
05:28 36.1 °F 35.4 °F 29.8 in Calm     97 % 0 in
05:33 36.1 °F 35.4 °F 29.8 in Calm     97 % 0 in
05:38 36.3 °F 35.6 °F 29.8 in West 2.7 mph 3.8 mph 97 % 0 in
05:43 36.7 °F 35.8 °F 29.8 in West 2.5 mph 3.8 mph 97 % 0 in
05:48 36.9 °F 36.3 °F 29.8 in West 3.8 mph 4.7 mph 98 % 0 in
05:54 36.9 °F 36.3 °F 29.8 in West 4.3 mph 4.7 mph 98 % 0 in
05:59 36.7 °F 35.8 °F 29.8 in WSW 2.9 mph 4.3 mph 97 % 0 in
06:04 36.3 °F 35.6 °F 29.8 in West 3.4 mph 4.3 mph 97 % 0 in
06:09 36.1 °F 35.4 °F 29.8 in West 2.9 mph 4.3 mph 97 % 0 in
06:14 36.1 °F 35.4 °F 29.8 in West 2.9 mph 3.8 mph 97 % 0 in
06:19 36.1 °F 35.4 °F 29.8 in Calm   3.8 mph 97 % 0 in
06:24 36.1 °F 35.2 °F 29.8 in Calm   3.1 mph 97 % 0 in
06:29 35.8 °F 34.9 °F 29.8 in Calm   2.7 mph 97 % 0 in
06:34 35.4 °F 34.9 °F 29.8 in Calm     97 % 0 in
06:39 35.8 °F 34.9 °F 29.8 in Calm     97 % 0 in
06:44 36 °F 35.1 °F 29.8 in Calm     97 % 0 in
06:49 35.8 °F 34.9 °F 29.8 in Calm     97 % 0 in
06:54 35.8 °F 34.9 °F 29.8 in Calm     97 % 0 in
06:59 35.8 °F 34.9 °F 29.8 in Calm     97 % 0 in
07:04 35.4 °F 34.9 °F 29.8 in WSW 3.1 mph 3.8 mph 97 % 0 in
07:09 35.8 °F 34.9 °F 29.8 in WSW 3.6 mph 3.8 mph 97 % 0 in
07:14 35.8 °F 34.9 °F 29.8 in West 3.8 mph 4.3 mph 97 % 0 in
07:19 36.1 °F 35.8 °F 29.8 in West 4.3 mph 4.3 mph 98 % 0 in
07:21 36.1 °F 35.8 °F 29.8 in West 3.1 mph 4.3 mph 98 % 0 in
07:26 36.7 °F 36.1 °F 29.7 in WSW 3.4 mph 4.3 mph 98 % 0 in
07:31 36.9 °F 36.3 °F 29.7 in WSW 4 mph 4 mph 98 % 0 in
07:36 36.9 °F 36.3 °F 29.7 in WSW 3.8 mph 4.3 mph 98 % 0 in
07:41 36.9 °F 36.3 °F 29.7 in West 4.3 mph 4.9 mph 98 % 0 in
07:46 37 °F 36.7 °F 29.7 in West 3.8 mph 4.9 mph 98 % 0 in
07:51 37.2 °F 36.5 °F 29.7 in WSW 4.3 mph 4.9 mph 97 % 0 in
07:56 37.6 °F 36.7 °F 29.8 in WSW 4.3 mph 4.9 mph 97 % 0 in
08:01 37.6 °F 36.7 °F 29.8 in West 4 mph 5.4 mph 97 % 0 in
08:06 37.6 °F 36.9 °F 29.8 in WSW 3.8 mph 5.8 mph 97 % 0 in
08:11 37.6 °F 36.9 °F 29.8 in West 4 mph 5.8 mph 97 % 0 in
08:16 37.6 °F 36.9 °F 29.8 in WSW 3.4 mph 4.3 mph 97 % 0 in
08:21 37.6 °F 36.7 °F 29.8 in WSW 3.4 mph 4 mph 97 % 0 in
08:26 37.6 °F 36.7 °F 29.8 in WSW 2.5 mph 4 mph 97 % 0 in
08:31 37.2 °F 36.5 °F 29.8 in WSW 2.7 mph 3.8 mph 97 % 0 in
08:36 37 °F 36.3 °F 29.8 in WSW 2.5 mph 3.8 mph 97 % 0 in
08:41 36.9 °F 36.1 °F 29.8 in Calm   2.9 mph 97 % 0 in
08:46 36.9 °F 36.1 °F 29.8 in Calm   2.2 mph 97 % 0 in
08:51 36.9 °F 36.1 °F 29.8 in Calm   0.9 mph 97 % 0 in
08:56 37.2 °F 36.5 °F 29.8 in Calm     97 % 0 in
09:01 37.2 °F 36.5 °F 29.8 in West 1.1 mph 1.1 mph 97 % 0 in
09:06 37.6 °F 36.9 °F 29.8 in West 3.6 mph 4.3 mph 97 % 0 in
09:11 37.8 °F 37 °F 29.8 in WSW 3.1 mph 4.3 mph 97 % 0 in
09:16 37.8 °F 37 °F 29.8 in West 3.8 mph 4.3 mph 97 % 0 in
09:21 37.9 °F 37.2 °F 29.8 in West 3.1 mph 4 mph 97 % 0 in
09:26 38.5 °F 37.6 °F 29.8 in West 3.4 mph 3.8 mph 97 % 0 in
09:31 38.5 °F 37.6 °F 29.8 in WSW 2.7 mph 3.6 mph 97 % 0 in
09:36 38.5 °F 37.8 °F 29.8 in WSW 3.6 mph 4.3 mph 97 % 0.01 in
09:41 38.5 °F 37.8 °F 29.8 in West 4 mph 4.9 mph 97 % 0.01 in
09:46 38.7 °F 37.9 °F 29.8 in WSW 3.6 mph 4.9 mph 97 % 0.01 in
09:51 39 °F 38.3 °F 29.8 in West 3.6 mph 4.3 mph 97 % 0.01 in
09:56 39 °F 38.3 °F 29.8 in West 2.7 mph 4 mph 97 % 0.01 in
10:01 39.2 °F 38.5 °F 29.8 in WSW 2.9 mph 4.3 mph 97 % 0.01 in
10:06 39.4 °F 38.7 °F 29.8 in WSW 2.7 mph 4.3 mph 97 % 0.01 in
10:11 39.6 °F 38.8 °F 29.8 in WSW 2.9 mph 3.8 mph 97 % 0.01 in
10:16 39.7 °F 39 °F 29.8 in WSW 3.1 mph 3.8 mph 97 % 0.01 in
10:21 39.9 °F 39.2 °F 29.8 in WSW 3.8 mph 4.3 mph 97 % 0.01 in
10:26 40.1 °F 39.4 °F 29.8 in WSW 4 mph 4.9 mph 97 % 0.01 in
10:31 40.1 °F 39.4 °F 29.8 in WSW 4.7 mph 5.6 mph 97 % 0 in
10:36 40.3 °F 39.6 °F 29.8 in WSW 4.7 mph 5.6 mph 97 % 0 in
10:41 40.5 °F 39.7 °F 29.8 in WSW 3.6 mph 5.4 mph 97 % 0 in
10:46 40.8 °F 39.9 °F 29.8 in WSW 5.4 mph 5.6 mph 97 % 0 in
10:51 41 °F 40.3 °F 29.8 in WSW 5.4 mph 5.8 mph 97 % 0 in
10:56 41 °F 40.3 °F 29.8 in WSW 4.9 mph 6 mph 97 % 0 in
11:01 41.2 °F 40.5 °F 29.8 in WSW 5.4 mph 6 mph 97 % 0 in
11:06 41.4 °F 40.6 °F 29.8 in WSW 4.7 mph 5.4 mph 97 % 0 in
11:11 41.5 °F 40.6 °F 29.8 in WSW 3.8 mph 5.4 mph 97 % 0 in
11:16 41.9 °F 41.2 °F 29.8 in WSW 3.6 mph 5.4 mph 97 % 0 in
11:21 42.1 °F 41.4 °F 29.8 in WSW 3.6 mph 6.5 mph 97 % 0 in
11:26 42.3 °F 41.4 °F 29.8 in WSW 4.9 mph 6.5 mph 97 % 0 in
11:31 42.4 °F 41.5 °F 29.8 in WSW 3.8 mph 6 mph 97 % 0 in
11:36 42.8 °F 42.1 °F 29.8 in WSW 4.9 mph 6 mph 97 % 0 in
11:41 43.2 °F 42.3 °F 29.8 in WSW 4.3 mph 6 mph 97 % 0 in
11:46 43.2 °F 42.3 °F 29.8 in WSW 6 mph 6.5 mph 97 % 0 in
11:51 43.5 °F 42.6 °F 29.8 in WSW 5.8 mph 7.4 mph 97 % 0 in
11:56 43.5 °F 42.6 °F 29.8 in WSW 4.9 mph 8.7 mph 97 % 0 in
12:01 43.9 °F 43 °F 29.8 in WSW 6 mph 8.7 mph 97 % 0 in
12:06 44.1 °F 43 °F 29.8 in West 5.8 mph 8.5 mph 96 % 0 in
12:11 44.1 °F 43 °F 29.8 in West 8.5 mph 8.9 mph 96 % 0 in
12:16 44.2 °F 43.2 °F 29.8 in West 6.3 mph 8.9 mph 96 % 0 in
12:21 44.2 °F 43.2 °F 29.8 in West 6.5 mph 8.5 mph 96 % 0 in
12:26 44.1 °F 43 °F 29.8 in West 7.6 mph 10.3 mph 96 % 0 in
12:31 44.1 °F 43 °F 29.8 in West 9.8 mph 10.5 mph 96 % 0 in
12:36 44.1 °F 43 °F 29.8 in WNW 3.6 mph 10.7 mph 96 % 0 in
12:41 44.1 °F 43 °F 29.8 in WSW 6 mph 10.7 mph 96 % 0 in
12:46 44.1 °F 43 °F 29.8 in WSW 5.8 mph 8.9 mph 96 % 0 in
12:51 43.9 °F 42.8 °F 29.8 in WSW 6 mph 8.9 mph 96 % 0 in
12:56 43.9 °F 42.8 °F 29.8 in West 5.4 mph 8.5 mph 96 % 0 in
13:01 44.1 °F 43 °F 29.8 in West 4 mph 8.5 mph 96 % 0 in
13:06 44.1 °F 43 °F 29.8 in West 4.9 mph 8.5 mph 96 % 0 in
13:11 44.1 °F 43 °F 29.8 in West 6.3 mph 8.5 mph 96 % 0 in
13:16 44.1 °F 43 °F 29.8 in West 5.6 mph 8.5 mph 96 % 0 in
13:21 44.1 °F 43 °F 29.8 in West 2.9 mph 8.5 mph 96 % 0 in
13:26 44.2 °F 43.2 °F 29.8 in West 7.4 mph 8.1 mph 96 % 0 in
13:31 44.2 °F 43 °F 29.8 in West 6.3 mph 7.4 mph 95 % 0 in
13:36 44.2 °F 43 °F 29.8 in WSW 6.3 mph 7.6 mph 95 % 0 in
13:41 44.2 °F 43 °F 29.8 in West 5.8 mph 7.6 mph 95 % 0 in
13:46 44.4 °F 43.2 °F 29.8 in West 6 mph 6.5 mph 95 % 0 in
13:51 44.4 °F 43.2 °F 29.8 in West 3.6 mph 6.7 mph 95 % 0 in
13:56 44.4 °F 43.2 °F 29.8 in West 4 mph 6.7 mph 95 % 0 in
14:01 44.4 °F 43.2 °F 29.8 in West 4 mph 6 mph 95 % 0 in
14:06 44.4 °F 43.2 °F 29.8 in WNW 2.7 mph 5.6 mph 95 % 0 in
14:11 45 °F 43.5 °F 29.8 in Calm   4.3 mph 95 % 0 in
14:16 45.1 °F 43.7 °F 29.8 in Calm   4.9 mph 95 % 0.01 in
14:21 45.1 °F 43.9 °F 29.8 in WNW 0.9 mph 4.9 mph 95 % 0.01 in
14:27 45.1 °F 43.9 °F 29.8 in WNW 3.6 mph 3.8 mph 95 % 0.01 in
14:32 45.1 °F 43.9 °F 29.8 in West 2.5 mph 4.3 mph 95 % 0.01 in
14:36 45.3 °F 44.1 °F 29.8 in West 3.1 mph 4.3 mph 95 % 0.01 in
14:42 45.7 °F 44.2 °F 29.8 in NW 2.7 mph 4.3 mph 95 % 0.01 in
14:47 45.7 °F 44.2 °F 29.8 in West 3.4 mph 4.9 mph 95 % 0.01 in
14:52 45.7 °F 44.2 °F 29.8 in WNW 2 mph 5.4 mph 95 % 0.01 in
14:57 45.9 °F 44.4 °F 29.8 in NNW 2.5 mph 5.4 mph 95 % 0.01 in
15:02 45.9 °F 44.6 °F 29.8 in East 3.1 mph 4.9 mph 95 % 0.01 in
15:07 45.9 °F 44.6 °F 29.8 in Calm   5.6 mph 95 % 0.01 in
15:12 46 °F 44.4 °F 29.8 in WNW 2.9 mph 5.6 mph 94 % 0.01 in
15:17 46 °F 44.4 °F 29.8 in NNW 1.1 mph 4.3 mph 94 % 0 in
15:22 46 °F 44.4 °F 29.8 in Calm   4.3 mph 94 % 0 in
15:27 46.2 °F 44.8 °F 29.8 in NW 2.2 mph 6.3 mph 94 % 0 in
15:32 46.2 °F 44.8 °F 29.8 in NNW 1.6 mph 7.8 mph 94 % 0 in
15:37 46 °F 44.4 °F 29.8 in NW 7.6 mph 10.1 mph 94 % 0 in
15:42 46 °F 44.2 °F 29.8 in WNW 2.7 mph 10.1 mph 93 % 0 in
15:47 46.2 °F 44.4 °F 29.8 in Calm   5.6 mph 93 % 0 in
15:52 46 °F 44.2 °F 29.8 in Calm   5.6 mph 93 % 0 in
15:57 46 °F 44.2 °F 29.8 in NNW 2 mph 6 mph 93 % 0 in
16:02 45.9 °F 44.2 °F 29.8 in WNW 2.9 mph 7.2 mph 94 % 0 in
16:07 45.9 °F 44.2 °F 29.8 in WNW 3.1 mph 7.4 mph 94 % 0 in
16:12 45.9 °F 44.2 °F 29.8 in West 2.7 mph 7.4 mph 94 % 0 in
16:17 45.9 °F 44.2 °F 29.8 in SSW 2.7 mph 6.3 mph 94 % 0 in
16:22 45.9 °F 44.2 °F 29.8 in NW 6.5 mph 6.5 mph 94 % 0 in
16:27 45.9 °F 44.1 °F 29.8 in West 3.8 mph 6.5 mph 94 % 0 in
16:32 45.9 °F 44.1 °F 29.8 in Calm   6.5 mph 94 % 0 in
16:37 45.9 °F 44.1 °F 29.9 in Calm   4.9 mph 94 % 0 in
16:42 45.7 °F 44.1 °F 29.9 in West 2.5 mph 4 mph 94 % 0 in
16:47 45.7 °F 44.1 °F 29.9 in Calm   4 mph 94 % 0 in
16:52 45.3 °F 43.9 °F 29.9 in Calm   4 mph 94 % 0 in
16:57 45.3 °F 43.9 °F 29.9 in West 2.5 mph 4 mph 94 % 0 in
17:02 45.1 °F 43.5 °F 29.9 in West 2.7 mph 4 mph 94 % 0 in
17:07 45.1 °F 43.3 °F 29.9 in WSW 3.6 mph 4.3 mph 94 % 0 in
17:12 45 °F 43.5 °F 29.9 in Calm   4.3 mph 95 % 0 in
17:17 45 °F 43.5 °F 29.9 in Calm   3.8 mph 95 % 0 in
17:22 44.8 °F 43.3 °F 29.9 in Calm     95 % 0 in
17:27 44.4 °F 43.2 °F 29.9 in Calm     95 % 0 in
17:32 44.2 °F 43 °F 29.9 in WNW 2.5 mph 2.5 mph 95 % 0 in
17:37 44.2 °F 42.8 °F 29.9 in Calm   2.5 mph 95 % 0 in
17:42 44.1 °F 42.6 °F 29.9 in WNW 2.5 mph 2.7 mph 95 % 0 in
17:47 43.5 °F 42.1 °F 29.9 in WNW 3.1 mph 3.1 mph 95 % 0 in
17:52 43.2 °F 41.7 °F 29.9 in Calm   3.1 mph 95 % 0 in
17:57 43 °F 41.5 °F 29.9 in Calm   2.5 mph 95 % 0 in
18:02 43 °F 41.5 °F 29.9 in Calm     95 % 0 in
18:07 42.8 °F 41.4 °F 29.9 in Calm     95 % 0 in
18:12 42.8 °F 41.4 °F 29.9 in Calm     95 % 0 in
18:17 42.8 °F 41.4 °F 29.9 in Calm     95 % 0 in
18:22 42.6 °F 41.4 °F 29.9 in Calm     95 % 0 in
18:27 42.3 °F 41.2 °F 29.9 in Calm     96 % 0 in
18:32 42.1 °F 41 °F 29.9 in Calm     96 % 0 in
18:33 42.1 °F 41 °F 29.9 in Calm     96 % 0 in
18:38 42.1 °F 41 °F 29.9 in West 3.4 mph 3.4 mph 96 % 0 in
18:43 41.9 °F 40.8 °F 29.9 in Calm   3.4 mph 96 % 0 in
18:48 41.5 °F 40.5 °F 29.9 in Calm   3.4 mph 96 % 0 in
18:53 41.4 °F 40.3 °F 29.9 in Calm     96 % 0 in
18:58 41 °F 39.9 °F 29.9 in Calm     96 % 0 in
19:03 40.5 °F 39.4 °F 29.9 in Calm     96 % 0 in
19:08 40.3 °F 39.2 °F 29.9 in Calm     96 % 0 in
19:13 40.3 °F 39.2 °F 29.9 in Calm     96 % 0 in
19:18 40.5 °F 39.4 °F 29.9 in Calm     96 % 0 in
19:23 40.5 °F 39.4 °F 29.9 in Calm     96 % 0 in
19:28 40.3 °F 39.2 °F 29.9 in Calm     96 % 0 in
19:33 40.5 °F 39.4 °F 29.9 in Calm     96 % 0 in
19:38 40.6 °F 39.9 °F 29.9 in Calm     97 % 0 in
19:48 40.8 °F 39.7 °F 29.9 in Calm     96 % 0 in
19:53 40.8 °F 39.7 °F 29.9 in Calm     96 % 0 in
19:58 40.6 °F 39.9 °F 29.9 in Calm     97 % 0 in
20:03 40.8 °F 39.7 °F 29.9 in Calm     96 % 0 in
20:08 40.8 °F 39.7 °F 29.9 in Calm     96 % 0 in
20:13 41 °F 39.9 °F 29.9 in Calm     96 % 0 in
20:18 41.2 °F 40.1 °F 29.9 in Calm     96 % 0 in
20:23 41.4 °F 40.3 °F 29.9 in Calm     96 % 0 in
20:28 41.4 °F 40.3 °F 29.9 in Calm     96 % 0 in
20:33 41.5 °F 40.5 °F 29.9 in Calm     96 % 0 in
20:38 41.9 °F 40.8 °F 29.9 in West 3.4 mph 4 mph 96 % 0 in
20:43 41.9 °F 40.8 °F 29.9 in West 3.1 mph 4 mph 96 % 0 in
20:48 41.9 °F 40.8 °F 29.9 in WSW 2.7 mph 4 mph 96 % 0 in
20:53 41.9 °F 40.8 °F 29.9 in WSW 3.8 mph 4 mph 96 % 0 in
20:58 42.1 °F 41 °F 29.9 in WSW 3.8 mph 3.8 mph 96 % 0 in
21:03 42.1 °F 41 °F 29.9 in WSW 4.3 mph 4.3 mph 96 % 0 in
21:08 42.3 °F 41.2 °F 29.9 in West 3.4 mph 4.3 mph 96 % 0 in
21:13 42.3 °F 41.2 °F 29.9 in West 3.8 mph 4.9 mph 96 % 0 in
21:18 42.4 °F 41.4 °F 29.9 in West 4.9 mph 5.4 mph 96 % 0 in
21:23 42.4 °F 41.4 °F 29.9 in West 4 mph 5.4 mph 96 % 0 in
21:28 42.4 °F 41.4 °F 29.9 in WSW 2.5 mph 4.9 mph 96 % 0 in
21:33 42.4 °F 41.4 °F 29.9 in WSW 2.5 mph 4.9 mph 96 % 0 in
21:38 42.4 °F 41.4 °F 29.9 in WSW 3.6 mph 4.3 mph 96 % 0 in
21:44 42.4 °F 41.4 °F 29.9 in WSW 3.1 mph 4.3 mph 96 % 0 in
21:48 42.4 °F 41.4 °F 29.9 in WSW 3.6 mph 4 mph 96 % 0 in
21:54 42.4 °F 41.4 °F 29.9 in WSW 2.7 mph 3.6 mph 96 % 0 in
21:59 42.4 °F 41.4 °F 29.9 in WSW 2.2 mph 3.6 mph 96 % 0 in
22:04 42.3 °F 41.2 °F 29.9 in WSW 3.1 mph 3.4 mph 96 % 0 in
22:09 42.3 °F 41.2 °F 29.9 in WSW 3.4 mph 4 mph 96 % 0 in
22:14 42.4 °F 41.4 °F 29.9 in WSW 5.4 mph 5.4 mph 96 % 0 in
22:19 42.4 °F 41.4 °F 29.9 in WSW 3.4 mph 5.4 mph 96 % 0 in
22:24 42.4 °F 41.4 °F 29.9 in West 3.8 mph 4.9 mph 96 % 0 in
22:29 42.6 °F 41.5 °F 29.9 in West 2.7 mph 4.3 mph 96 % 0 in
22:34 42.6 °F 41.5 °F 29.9 in West 2.9 mph 4.3 mph 96 % 0 in
22:39 42.8 °F 41.7 °F 29.9 in Calm   3.8 mph 96 % 0 in
22:44 42.6 °F 41.4 °F 29.9 in Calm   3.1 mph 95 % 0 in
22:49 42.4 °F 41.4 °F 29.9 in Calm     96 % 0 in
22:54 42.6 °F 41.4 °F 29.9 in WSW 4 mph 4 mph 95 % 0 in
22:59 42.6 °F 41.4 °F 29.9 in West 3.6 mph 4 mph 95 % 0 in
23:04 42.4 °F 41.4 °F 29.9 in WSW 3.1 mph 4 mph 96 % 0 in
23:09 42.3 °F 41.2 °F 29.9 in West 2.7 mph 3.8 mph 96 % 0 in
23:14 42.4 °F 41.4 °F 29.9 in Calm   3.6 mph 96 % 0 in
23:19 42.6 °F 41.4 °F 29.9 in West 3.8 mph 4.3 mph 95 % 0 in
23:24 42.6 °F 41.4 °F 29.9 in WSW 3.6 mph 4.3 mph 95 % 0 in
23:29 42.4 °F 41.4 °F 29.9 in WSW 3.1 mph 4.3 mph 96 % 0 in
23:34 42.4 °F 41.4 °F 29.9 in WSW 2.7 mph 4.3 mph 96 % 0 in
23:39 42.4 °F 41.4 °F 29.9 in WSW 5.6 mph 6.5 mph 96 % 0 in
23:44 42.6 °F 41.4 °F 29.9 in WSW 4 mph 6.5 mph 95 % 0 in
23:49 42.6 °F 41.5 °F 29.9 in WSW 4.3 mph 6.3 mph 96 % 0 in
23:54 42.6 °F 41.4 °F 29.9 in WSW 5.4 mph 6.3 mph 95 % 0 in
23:59 42.6 °F 41.5 °F 29.9 in WSW 3.6 mph 5.8 mph 96 % 0 in
Le Gheer Warneton
Courtoisie de Weather Underground - 2.25 mb

Mise a jour : 18/12/2017 17:21:11
Généré par Cumulus 1.9.4 (1099)